Time;durP1;ratioP1;P1;durP2;ratioP2;P2;SDS_P1;SDS_P2;PMS_P1;PMS_P2;Temp;Humidity;BMP_temperature;BMP_pressure;BME280_temperature;BME280_humidity;BME280_pressure;Samples;Min_cycle;Max_cycle;Signal;HPM_P1;HPM_P2
2022/06/09 00:00:49;;;;;;;25.63;6.38;;;;;;;19.35;100.00;100679.84;5016738;28;20038;-49
2022/06/09 00:03:22;;;;;;;34.80;7.00;;;;;;;19.62;100.00;100679.00;5037971;28;20036;-49
2022/06/09 00:05:48;;;;;;;23.17;6.37;;;;;;;19.44;100.00;100676.69;5053844;28;20276;-51
2022/06/09 00:08:15;;;;;;;26.70;6.28;;;;;;;19.69;100.00;100684.16;5033009;28;20274;-51
2022/06/09 00:10:47;;;;;;;24.93;6.83;;;;;;;19.67;100.00;100685.53;5016293;28;20067;-48
2022/06/09 00:13:12;;;;;;;22.73;5.63;;;;;;;19.17;100.00;100682.97;5026251;28;20268;-52
2022/06/09 00:15:38;;;;;;;28.25;6.97;;;;;;;19.49;100.00;100688.41;5023427;28;20302;-49
2022/06/09 00:18:04;;;;;;;30.33;6.47;;;;;;;19.68;100.00;100689.88;5019105;28;20042;-50
2022/06/09 00:20:30;;;;;;;23.58;6.30;;;;;;;19.72;100.00;100697.25;5029294;28;20066;-51
2022/06/09 00:22:55;;;;;;;39.00;6.50;;;;;;;19.66;100.00;100692.03;5017472;28;20030;-49
2022/06/09 00:25:21;;;;;;;35.30;6.88;;;;;;;19.38;100.00;100694.78;5024693;28;20034;-48
2022/06/09 00:27:46;;;;;;;25.23;6.72;;;;;;;18.99;100.00;100690.38;5013002;28;20065;-52
2022/06/09 00:30:15;;;;;;;31.70;6.40;;;;;;;19.56;100.00;100690.84;5027848;28;20045;-49
2022/06/09 00:32:41;;;;;;;28.20;6.60;;;;;;;19.34;100.00;100682.84;5015823;28;20054;-50
2022/06/09 00:35:08;;;;;;;25.38;7.10;;;;;;;19.47;100.00;100697.84;5026241;28;20319;-49
2022/06/09 00:37:33;;;;;;;24.42;7.32;;;;;;;19.35;100.00;100695.31;5032264;28;20030;-49
2022/06/09 00:39:59;;;;;;;22.43;6.13;;;;;;;19.05;100.00;100691.25;5032441;28;20036;-47
2022/06/09 00:42:25;;;;;;;26.77;6.65;;;;;;;18.90;100.00;100697.28;5015797;28;20045;-53
2022/06/09 00:44:51;;;;;;;26.80;7.00;;;;;;;19.04;100.00;100700.47;5028525;28;20050;-51
2022/06/09 00:47:31;;;;;;;24.35;6.80;;;;;;;19.19;100.00;100697.06;5019673;28;20053;-48
2022/06/09 00:50:03;;;;;;;43.07;6.80;;;;;;;18.90;100.00;100705.41;5019505;28;20034;-49
2022/06/09 00:52:35;;;;;;;25.07;5.80;;;;;;;18.28;100.00;100712.81;5028743;28;20306;-50
2022/06/09 00:55:06;;;;;;;25.70;7.20;;;;;;;19.02;100.00;100716.97;5017512;28;20307;-49
2022/06/09 00:57:37;;;;;;;28.37;7.03;;;;;;;18.78;100.00;100709.09;5022844;28;20294;-47
2022/06/09 01:00:16;;;;;;;20.93;6.77;;;;;;;19.12;100.00;100724.38;5025811;28;20312;-53
2022/06/09 01:02:43;;;;;;;32.33;8.40;;;;;;;19.18;100.00;100717.13;5015727;28;20280;-52
2022/06/09 01:05:11;;;;;;;21.63;6.10;;;;;;;19.16;100.00;100722.00;5025981;28;20298;-52
2022/06/09 01:07:45;;;;;;;37.27;7.63;;;;;;;19.39;100.00;100720.03;5022294;28;20302;-50
2022/06/09 01:10:12;;;;;;;40.40;8.10;;;;;;;18.90;100.00;100722.50;5017706;28;20278;-50
2022/06/09 01:12:41;;;;;;;46.38;7.93;;;;;;;19.58;100.00;100728.59;5028517;28;20268;-55
2022/06/09 01:15:19;;;;;;;31.23;7.27;;;;;;;19.15;100.00;100734.72;5017917;28;20037;-48
2022/06/09 01:18:19;;;;;;;32.60;8.93;;;;;;;19.01;100.00;100731.59;5020994;28;20274;-52
2022/06/09 01:20:54;;;;;;;37.47;7.73;;;;;;;18.88;100.00;100734.66;5028218;28;20271;-51
2022/06/09 01:23:50;;;;;;;30.87;8.23;;;;;;;18.76;100.00;100738.31;5019748;28;20271;-51
2022/06/09 01:26:31;;;;;;;35.80;8.37;;;;;;;18.57;100.00;100735.13;5016781;28;20340;-47
2022/06/09 01:29:10;;;;;;;43.40;8.20;;;;;;;18.87;100.00;100738.44;5016348;28;20279;-51
2022/06/09 01:32:03;;;;;;;39.90;8.77;;;;;;;18.72;100.00;100737.19;5022115;28;20268;-48
2022/06/09 01:34:40;;;;;;;32.80;8.00;;;;;;;18.70;100.00;100738.50;5027769;28;20313;-49
2022/06/09 01:37:13;;;;;;;23.73;7.70;;;;;;;18.84;100.00;100738.94;5017475;28;20321;-48
2022/06/09 01:39:47;;;;;;;32.93;7.93;;;;;;;18.86;100.00;100729.50;5021847;28;20272;-47
2022/06/09 01:42:24;;;;;;;35.33;7.80;;;;;;;18.68;100.00;100738.75;5026602;28;20271;-50
2022/06/09 01:44:51;;;;;;;;;;;;;;;19.17;100.00;100743.41;5012291;28;20268;-48
2022/06/09 01:47:21;;;;;;;25.55;7.55;;;;;;;18.89;100.00;100747.13;5018354;28;19913;-49
2022/06/09 01:49:51;;;;;;;37.33;9.10;;;;;;;18.83;100.00;100750.84;5020588;28;20038;-52
2022/06/09 01:52:19;;;;;;;25.30;7.80;;;;;;;18.66;100.00;100753.63;5026814;28;20272;-51
2022/06/09 01:54:46;;;;;;;34.77;8.20;;;;;;;18.76;100.00;100754.56;5015126;28;20298;-50
2022/06/09 01:57:20;;;;;;;32.00;7.70;;;;;;;18.67;100.00;100756.06;5025327;28;20296;-50
2022/06/09 01:59:52;;;;;;;29.40;6.97;;;;;;;18.63;100.00;100761.19;5022471;28;20283;-49
2022/06/09 02:02:21;;;;;;;31.87;6.80;;;;;;;18.69;100.00;100753.97;5016254;28;20279;-49
2022/06/09 02:05:02;;;;;;;39.43;7.53;;;;;;;18.60;100.00;100750.03;5027769;28;20268;-50
2022/06/09 02:07:31;;;;;;;41.37;7.07;;;;;;;18.69;100.00;100745.00;5019954;28;20267;-51
2022/06/09 02:09:57;;;;;;;25.87;7.10;;;;;;;18.65;100.00;100757.41;5018870;28;20276;-50
2022/06/09 02:12:27;;;;;;;28.77;6.53;;;;;;;18.61;100.00;100748.97;5027414;28;20279;-51
2022/06/09 02:14:58;;;;;;;24.93;6.90;;;;;;;18.60;100.00;100756.28;5027549;28;20046;-51
2022/06/09 02:17:23;;;;;;;24.20;7.20;;;;;;;18.63;100.00;100765.78;5019054;28;20275;-52
2022/06/09 02:19:51;;;;;;;29.00;9.63;;;;;;;18.73;100.00;100765.91;5019901;28;20274;-51
2022/06/09 02:22:17;;;;;;;32.80;9.20;;;;;;;19.05;100.00;100769.84;5026250;28;20046;-52
2022/06/09 02:24:43;;;;;;;34.03;8.15;;;;;;;19.35;100.00;100773.94;5014554;28;20292;-49
2022/06/09 02:27:09;;;;;;;28.65;8.93;;;;;;;19.07;100.00;100781.25;5025537;28;20056;-48
2022/06/09 02:29:34;;;;;;;31.40;7.95;;;;;;;18.92;100.00;100779.16;5020304;28;20033;-50
2022/06/09 02:32:00;;;;;;;34.13;8.25;;;;;;;17.98;100.00;100782.44;5018420;28;20054;-49
2022/06/09 02:34:26;;;;;;;29.50;8.05;;;;;;;18.33;100.00;100775.94;5027081;28;20054;-47
2022/06/09 02:36:52;;;;;;;25.98;7.07;;;;;;;18.57;100.00;100777.63;5014352;28;20042;-47
2022/06/09 02:39:17;;;;;;;28.50;7.45;;;;;;;18.54;100.00;100784.34;5024045;28;20031;-49
2022/06/09 02:41:45;;;;;;;25.07;6.17;;;;;;;18.75;100.00;100785.44;5021571;28;20057;-48
2022/06/09 02:44:10;;;;;;;33.40;8.77;;;;;;;18.57;100.00;100786.59;5017061;28;20284;-47
2022/06/09 02:46:36;;;;;;;33.75;7.32;;;;;;;18.36;100.00;100782.75;5027250;28;20052;-49
2022/06/09 02:49:01;;;;;;;27.20;7.30;;;;;;;18.62;100.00;100791.22;5015603;28;20030;-48
2022/06/09 02:51:31;;;;;;;36.05;7.28;;;;;;;18.67;100.00;100798.59;5022695;28;20727;-47
2022/06/09 02:54:01;;;;;;;30.57;7.23;;;;;;;18.77;100.00;100807.69;5023002;28;20037;-47
2022/06/09 02:56:27;;;;;;;23.97;7.03;;;;;;;18.94;100.00;100811.41;5014891;28;20350;-51
2022/06/09 02:58:53;;;;;;;19.80;6.97;;;;;;;18.91;100.00;100805.41;5030440;28;20299;-52
2022/06/09 03:01:19;;;;;;;27.25;7.15;;;;;;;19.21;100.00;100806.06;5019455;28;20034;-52
2022/06/09 03:03:45;;;;;;;21.08;6.20;;;;;;;18.96;100.00;100806.53;5024657;28;20106;-53
2022/06/09 03:06:10;;;;;;;30.92;7.93;;;;;;;18.46;100.00;100810.00;5020103;28;20038;-50
2022/06/09 03:08:36;;;;;;;28.87;7.63;;;;;;;18.48;100.00;100817.84;5030394;28;20041;-51
2022/06/09 03:11:03;;;;;;;30.43;6.83;;;;;;;18.98;100.00;100818.81;5018775;28;20034;-49
2022/06/09 03:13:29;;;;;;;28.27;8.40;;;;;;;18.49;100.00;100824.91;5025665;28;20286;-52
2022/06/09 03:15:54;;;;;;;31.67;8.45;;;;;;;18.60;100.00;100831.28;5025764;28;20037;-52
2022/06/09 03:18:20;;;;;;;36.28;8.18;;;;;;;18.97;100.00;100827.97;5034042;28;20063;-48
2022/06/09 03:20:47;;;;;;;34.08;7.35;;;;;;;19.02;100.00;100832.66;5017096;28;20053;-51
2022/06/09 03:23:13;;;;;;;30.37;7.43;;;;;;;18.97;100.00;100841.53;5027778;28;20056;-53
2022/06/09 03:25:38;;;;;;;32.40;7.83;;;;;;;19.11;100.00;100843.88;5014047;28;20275;-49
2022/06/09 03:28:06;;;;;;;30.52;7.60;;;;;;;19.25;100.00;100850.56;5026943;28;20049;-51
2022/06/09 03:30:32;;;;;;;32.73;7.30;;;;;;;19.22;100.00;100858.38;5033087;28;20075;-49
2022/06/09 03:32:59;;;;;;;33.92;8.48;;;;;;;18.91;100.00;100853.34;5013792;28;20272;-51
2022/06/09 03:35:25;;;;;;;29.98;8.52;;;;;;;18.93;100.00;100862.06;5021304;28;20037;-52
2022/06/09 03:37:51;;;;;;;34.95;8.38;;;;;;;19.11;100.00;100868.28;5033485;28;20034;-52
2022/06/09 03:40:20;;;;;;;29.63;7.22;;;;;;;18.88;100.00;100873.66;5018865;28;20076;-48
2022/06/09 03:42:45;;;;;;;22.27;6.87;;;;;;;19.28;100.00;100873.66;5015749;28;20046;-49
2022/06/09 03:45:14;;;;;;;31.20;6.65;;;;;;;19.20;100.00;100878.41;5033503;28;20271;-51
2022/06/09 03:47:39;;;;;;;36.47;8.33;;;;;;;19.11;100.00;100876.41;5023919;28;20040;-52
2022/06/09 03:50:07;;;;;;;32.80;7.28;;;;;;;19.42;100.00;100884.91;5026432;28;20303;-52
2022/06/09 03:52:33;;;;;;;25.23;7.50;;;;;;;19.17;100.00;100889.78;5016454;28;20058;-52
2022/06/09 03:54:59;;;;;;;21.95;7.35;;;;;;;19.54;100.00;100898.34;5029103;28;20340;-50
2022/06/09 03:57:25;;;;;;;39.10;13.80;;;;;;;19.76;100.00;100892.84;5020875;28;20045;-52
2022/06/09 03:59:51;;;;;;;26.63;7.47;;;;;;;19.57;100.00;100893.22;5021914;28;20038;-51
2022/06/09 04:02:17;;;;;;;29.23;8.07;;;;;;;19.84;100.00;100894.31;5027767;28;20080;-51
2022/06/09 04:04:42;;;;;;;52.58;9.18;;;;;;;19.90;100.00;100895.97;5015010;28;20045;-52
2022/06/09 04:07:11;;;;;;;38.35;9.75;;;;;;;19.99;100.00;100894.47;5018629;28;20040;-47
2022/06/09 04:09:37;;;;;;;24.83;8.13;;;;;;;20.15;100.00;100903.56;5023197;28;20097;-51
2022/06/09 04:12:04;;;;;;;37.30;10.20;;;;;;;19.84;100.00;100914.13;5025816;28;20282;-53
2022/06/09 04:14:29;;;;;;;30.92;9.15;;;;;;;19.69;100.00;100908.53;5016855;28;20039;-48
2022/06/09 04:16:55;;;;;;;35.13;9.77;;;;;;;19.89;100.00;100911.47;5029321;28;20057;-50
2022/06/09 04:19:22;;;;;;;41.37;10.53;;;;;;;20.01;100.00;100924.91;5020026;28;20057;-49
2022/06/09 04:21:48;;;;;;;42.08;9.60;;;;;;;19.42;100.00;100925.59;5022290;28;20045;-51
2022/06/09 04:24:14;;;;;;;42.75;10.15;;;;;;;19.94;100.00;100926.19;5027306;28;20042;-51
2022/06/09 04:26:41;;;;;;;34.90;9.50;;;;;;;20.14;100.00;100926.38;5016562;28;20030;-51
2022/06/09 04:29:11;;;;;;;26.47;8.37;;;;;;;19.41;100.00;100934.81;5028021;28;20042;-54
2022/06/09 04:31:37;;;;;;;50.17;12.27;;;;;;;19.70;100.00;100923.72;5021975;28;20102;-49
2022/06/09 04:34:03;;;;;;;31.77;9.02;;;;;;;19.63;100.00;100932.06;5020007;28;20046;-51
2022/06/09 04:36:30;;;;;;;39.20;10.55;;;;;;;19.39;100.00;100934.25;5029103;28;20071;-48
2022/06/09 04:38:55;;;;;;;34.58;8.77;;;;;;;19.57;100.00;100933.09;5016275;28;20029;-51
2022/06/09 04:41:21;;;;;;;27.15;7.03;;;;;;;19.95;100.00;100941.38;5025940;28;20106;-50
2022/06/09 04:43:47;;;;;;;27.30;7.13;;;;;;;19.77;100.00;100951.47;5022910;28;20042;-49
2022/06/09 04:46:16;;;;;;;26.50;6.82;;;;;;;19.70;100.00;100942.72;5018964;28;20042;-51
2022/06/09 04:48:42;;;;;;;25.30;7.27;;;;;;;20.01;100.00;100948.50;5028859;28;20097;-51
2022/06/09 04:51:10;;;;;;;24.38;6.28;;;;;;;20.24;100.00;100949.25;5017713;28;20275;-51
2022/06/09 04:53:37;;;;;;;28.10;6.67;;;;;;;20.13;100.00;100957.31;5023666;28;20067;-52
2022/06/09 04:56:03;;;;;;;31.57;8.53;;;;;;;20.37;100.00;100953.44;5028557;28;20030;-49
2022/06/09 04:58:29;;;;;;;28.92;9.02;;;;;;;20.37;100.00;100958.88;5027605;28;20030;-48
2022/06/09 05:00:54;;;;;;;33.15;9.30;;;;;;;20.43;100.00;100964.09;5031180;28;20040;-53
2022/06/09 05:03:20;;;;;;;45.55;10.30;;;;;;;20.15;100.00;100971.44;5029911;28;20026;-49
2022/06/09 05:05:48;;;;;;;33.60;9.47;;;;;;;19.91;100.00;100979.06;5029697;28;20058;-46
2022/06/09 05:08:15;;;;;;;31.73;8.67;;;;;;;20.09;100.00;100985.22;5013252;28;20040;-52
2022/06/09 05:10:43;;;;;;;26.55;8.88;;;;;;;20.10;100.00;100990.41;5029058;28;20030;-48
2022/06/09 05:13:10;;;;;;;27.03;7.23;;;;;;;20.06;100.00;100997.41;5031222;28;20030;-53
2022/06/09 05:15:37;;;;;;;30.70;7.47;;;;;;;20.30;100.00;101002.56;5031020;28;20049;-52
2022/06/09 05:18:04;;;;;;;22.50;7.20;;;;;;;21.10;100.00;100998.28;5025896;28;20283;-50
2022/06/09 05:20:30;;;;;;;35.23;9.20;;;;;;;20.88;100.00;100997.34;5028781;28;20034;-52
2022/06/09 05:22:57;;;;;;;31.10;7.18;;;;;;;20.40;100.00;100994.47;5029568;28;20036;-50
2022/06/09 05:25:23;;;;;;;27.02;6.05;;;;;;;21.81;100.00;101007.09;5029765;28;20029;-52
2022/06/09 05:27:48;;;;;;;28.17;6.20;;;;;;;20.34;100.00;101006.38;5031138;28;20105;-49
2022/06/09 05:30:22;;;;;;;21.67;5.57;;;;;;;20.39;100.00;101011.03;5030812;28;20033;-48
2022/06/09 05:32:48;;;;;;;8.60;4.03;;;;;;;21.41;100.00;101025.66;5027938;28;20054;-48
2022/06/09 05:35:15;;;;;;;8.97;3.40;;;;;;;20.67;100.00;101025.41;5030625;28;20042;-53
2022/06/09 05:45:57;;;;;;;8.17;2.47;;;;;;;21.51;100.00;101052.09;5029012;28;20030;-50
2022/06/09 05:48:22;;;;;;;4.95;1.95;;;;;;;21.05;100.00;101051.56;5011806;28;20073;-49
2022/06/09 05:50:50;;;;;;;4.03;1.80;;;;;;;22.67;100.00;101055.75;5029900;28;20829;-51
2022/06/09 05:53:15;;;;;;;5.30;2.17;;;;;;;22.93;100.00;101062.03;5025905;28;20030;-51
2022/06/09 05:55:41;;;;;;;5.80;1.65;;;;;;;23.04;100.00;101063.63;5011711;28;20035;-53
2022/06/09 05:58:06;;;;;;;4.37;1.87;;;;;;;23.27;100.00;101071.56;5011619;28;20109;-52
2022/06/09 06:00:32;;;;;;;3.65;1.35;;;;;;;21.23;100.00;101068.56;5027451;28;20045;-49
2022/06/09 06:02:57;;;;;;;3.53;1.37;;;;;;;21.22;100.00;101072.34;5014820;28;20033;-54
2022/06/09 06:08:07;;;;;;;6.43;1.17;;;;;;;21.08;100.00;101071.94;5011364;28;20359;-49
2022/06/09 06:10:33;;;;;;;3.50;1.63;;;;;;;21.78;100.00;101081.94;5027267;28;20030;-47
2022/06/09 06:12:59;;;;;;;3.30;1.50;;;;;;;21.74;100.00;101099.88;5014527;28;20049;-53
2022/06/09 06:15:25;;;;;;;2.67;1.30;;;;;;;21.59;100.00;101093.22;5023866;28;20034;-51
2022/06/09 06:17:56;;;;;;;2.97;1.20;;;;;;;21.18;100.00;101098.41;5021546;28;20051;-47
2022/06/09 06:20:23;;;;;;;3.63;1.13;;;;;;;21.78;100.00;101106.44;5016248;28;20043;-49
2022/06/09 06:22:49;;;;;;;;;;;;;;;21.53;100.00;101107.06;5027671;28;20034;-51
2022/06/09 06:25:14;;;;;;;4.73;0.90;;;;;;;21.44;100.00;101113.00;5012447;28;19918;-53
2022/06/09 06:27:40;;;;;;;3.13;1.25;;;;;;;21.51;100.00;101115.50;5030675;28;20037;-53
2022/06/09 06:30:06;;;;;;;1.85;0.90;;;;;;;21.32;100.00;101115.94;5018686;28;20073;-49
2022/06/09 06:32:32;;;;;;;5.43;1.20;;;;;;;21.58;100.00;101124.25;5017403;28;20034;-51
2022/06/09 06:34:58;;;;;;;1.92;0.80;;;;;;;21.00;100.00;101119.50;5017651;28;20034;-51
2022/06/09 06:37:23;;;;;;;3.75;1.38;;;;;;;21.05;100.00;101122.25;5026952;28;20382;-52
2022/06/09 06:39:49;;;;;;;1.55;0.80;;;;;;;21.49;100.00;101131.28;5024822;28;20038;-52
2022/06/09 06:42:15;;;;;;;5.30;1.20;;;;;;;21.42;100.00;101136.09;5021503;28;20059;-50
2022/06/09 06:44:43;;;;;;;3.63;0.80;;;;;;;21.45;100.00;101144.56;5014349;28;20042;-52
2022/06/09 06:47:11;;;;;;;2.30;0.85;;;;;;;21.77;100.00;101145.63;5030936;28;20094;-53
2022/06/09 06:49:37;;;;;;;2.60;1.03;;;;;;;21.19;100.00;101144.38;5025623;28;20050;-50
2022/06/09 06:52:03;;;;;;;;;;;;;;;21.72;100.00;101159.22;5029403;28;20045;-48
2022/06/09 06:54:30;;;;;;;8.32;1.20;;;;;;;21.46;100.00;101161.72;5033662;28;20023;-47
2022/06/09 06:56:56;;;;;;;;;;;;;;;21.41;100.00;101159.78;5033589;28;20068;-54
2022/06/09 06:59:21;;;;;;;3.90;1.27;;;;;;;21.53;100.00;101164.19;5027441;28;19910;-48
2022/06/09 07:01:47;;;;;;;4.40;1.13;;;;;;;22.15;100.00;101168.16;5027475;28;20037;-54
2022/06/09 07:04:13;;;;;;;2.60;1.10;;;;;;;22.17;100.00;101168.69;5034074;28;20042;-51
2022/06/09 07:06:38;;;;;;;1.70;0.88;;;;;;;21.00;100.00;101173.88;5033047;28;20034;-52
2022/06/09 07:09:04;;;;;;;3.53;1.20;;;;;;;21.74;100.00;101176.91;5033297;28;20085;-49
2022/06/09 07:11:30;;;;;;;3.40;0.82;;;;;;;22.17;100.00;101178.75;5031874;28;20063;-48
2022/06/09 07:13:56;;;;;;;;;;;;;;;21.83;100.00;101179.94;5034153;28;20041;-50
2022/06/09 07:16:21;;;;;;;3.07;1.10;;;;;;;21.76;100.00;101182.09;5029366;28;19929;-51
2022/06/09 07:18:47;;;;;;;3.38;1.30;;;;;;;22.06;100.00;101197.78;5017148;28;20042;-53
2022/06/09 07:21:14;;;;;;;7.55;1.20;;;;;;;22.25;100.00;101191.84;5029309;28;20038;-47
2022/06/09 07:23:39;;;;;;;3.07;1.20;;;;;;;22.25;100.00;101191.06;5024642;28;20062;-51
2022/06/09 07:26:05;;;;;;;3.28;1.45;;;;;;;22.24;100.00;101197.59;5018761;28;20038;-47
2022/06/09 07:28:32;;;;;;;9.57;1.67;;;;;;;22.19;100.00;101199.22;5015550;28;20041;-48
2022/06/09 07:30:59;;;;;;;3.60;1.60;;;;;;;21.80;100.00;101201.41;5019003;28;20022;-51
2022/06/09 07:33:32;;;;;;;7.33;1.37;;;;;;;21.78;100.00;101199.78;5028876;28;20057;-54
2022/06/09 07:35:59;;;;;;;5.00;1.60;;;;;;;22.43;100.00;101203.38;5031547;28;20100;-51
2022/06/09 07:38:25;;;;;;;5.73;1.40;;;;;;;22.09;100.00;101204.59;5032524;28;20117;-48
2022/06/09 07:40:52;;;;;;;5.17;1.50;;;;;;;21.98;100.00;101206.44;5029864;28;20030;-53
2022/06/09 07:43:21;;;;;;;5.63;2.30;;;;;;;22.17;100.00;101201.38;5028984;28;20034;-50
2022/06/09 07:45:48;;;;;;;4.77;1.80;;;;;;;22.34;100.00;101205.78;5029617;28;20034;-51
2022/06/09 07:48:14;;;;;;;7.60;1.97;;;;;;;22.44;100.00;101200.41;5032151;28;20055;-51
2022/06/09 07:50:41;;;;;;;3.80;1.92;;;;;;;22.75;100.00;101208.69;5026955;28;20034;-50
2022/06/09 07:53:06;;;;;;;;;;;;;;;23.44;100.00;101203.06;5031520;28;20037;-53
2022/06/09 07:55:33;;;;;;;8.47;1.80;;;;;;;23.29;100.00;101209.31;5029503;28;19917;-51
2022/06/09 07:57:58;;;;;;;;;;;;;;;23.47;100.00;101204.41;5030158;28;20622;-54
2022/06/09 08:00:25;;;;;;;7.20;1.50;;;;;;;23.29;100.00;101203.88;5024375;28;19917;-48
2022/06/09 08:02:51;;;;;;;3.97;1.40;;;;;;;23.42;100.00;101197.06;5029513;28;20029;-53
2022/06/09 08:05:20;;;;;;;4.07;1.70;;;;;;;23.96;100.00;101207.59;5009828;28;20030;-55
2022/06/09 08:07:45;;;;;;;3.23;1.37;;;;;;;23.18;100.00;101218.56;5029421;28;20050;-51
2022/06/09 08:10:17;;;;;;;3.22;1.25;;;;;;;23.19;100.00;101231.13;5031531;28;20046;-48
2022/06/09 08:12:45;;;;;;;4.23;1.50;;;;;;;23.68;100.00;101224.34;5030158;28;20041;-52
2022/06/09 08:15:11;;;;;;;2.57;0.90;;;;;;;23.15;100.00;101247.22;5026768;28;20025;-52
2022/06/09 08:17:38;;;;;;;2.00;0.90;;;;;;;24.17;100.00;101238.47;5030150;28;20052;-52
2022/06/09 08:20:05;;;;;;;;;;;;;;;24.46;100.00;101244.09;5026196;28;20040;-52
2022/06/09 08:22:31;;;;;;;4.32;0.85;;;;;;;24.74;100.00;101246.41;5009273;28;20011;-51
2022/06/09 08:24:56;;;;;;;2.67;1.10;;;;;;;24.07;100.00;101250.25;5027477;28;20037;-54
2022/06/09 08:27:22;;;;;;;5.55;1.05;;;;;;;23.14;100.00;101267.38;5031257;28;20026;-52
2022/06/09 08:29:48;;;;;;;;;;;;;;;23.32;100.00;101257.91;5031591;28;20041;-50
2022/06/09 08:32:15;;;;;;;4.20;1.50;;;;;;;23.45;100.00;101272.09;5032548;28;19981;-50
2022/06/09 08:34:40;;;;;;;2.25;1.10;;;;;;;24.14;100.00;101266.34;5021713;28;20091;-50
2022/06/09 08:37:06;;;;;;;13.43;5.47;;;;;;;24.10;100.00;101276.16;5031960;28;20045;-49
2022/06/09 08:39:31;;;;;;;5.75;1.42;;;;;;;24.03;100.00;101284.66;5024706;28;20097;-52
2022/06/09 08:41:57;;;;;;;6.72;2.33;;;;;;;23.59;100.00;101288.75;5022645;28;20042;-53
2022/06/09 08:44:44;;;;;;;3.05;1.42;;;;;;;24.21;100.00;101294.19;5017456;28;20071;-49
2022/06/09 08:47:22;;;;;;;4.68;1.83;;;;;;;23.91;100.00;101301.31;5016425;28;20064;-54
2022/06/09 08:49:51;;;;;;;5.57;1.90;;;;;;;24.72;100.00;101303.31;5030499;28;20030;-52
2022/06/09 08:52:48;;;;;;;9.53;3.33;;;;;;;24.23;100.00;101302.13;5027364;28;20053;-52
2022/06/09 08:55:30;;;;;;;50.63;21.67;;;;;;;24.70;100.00;101309.06;5027663;28;20041;-48
2022/06/09 08:58:01;;;;;;;8.10;2.83;;;;;;;24.99;100.00;101311.16;5009975;28;20038;-56
2022/06/09 09:00:35;;;;;;;9.93;3.40;;;;;;;24.17;100.00;101310.31;5031135;28;20073;-52
2022/06/09 09:03:11;;;;;;;8.00;2.70;;;;;;;25.03;100.00;101320.41;5030509;28;20034;-48
2022/06/09 09:05:49;;;;;;;9.02;2.25;;;;;;;25.77;100.00;101324.31;5030443;28;20026;-48
2022/06/09 09:08:14;;;;;;;10.57;4.77;;;;;;;25.83;100.00;101331.38;5027739;28;20049;-52
2022/06/09 09:10:55;;;;;;;5.95;2.42;;;;;;;26.46;100.00;101332.44;5011879;28;20038;-54
2022/06/09 09:13:43;;;;;;;6.03;1.90;;;;;;;25.69;100.00;101330.44;5025767;28;20064;-52
2022/06/09 09:16:12;;;;;;;4.80;2.27;;;;;;;25.22;100.00;101338.94;5011805;28;20038;-49
2022/06/09 09:18:44;;;;;;;7.70;2.57;;;;;;;26.00;100.00;101335.63;5011741;28;20030;-52
2022/06/09 09:21:19;;;;;;;4.83;2.40;;;;;;;25.46;100.00;101332.75;5015760;28;20101;-52
2022/06/09 09:24:07;;;;;;;5.53;2.40;;;;;;;26.00;100.00;101341.94;5023189;28;20039;-51
2022/06/09 09:27:01;;;;;;;6.10;2.60;;;;;;;24.87;100.00;101341.56;5011612;28;20272;-48
2022/06/09 09:29:46;;;;;;;5.10;2.90;;;;;;;25.70;100.00;101349.28;5018182;28;20049;-51
2022/06/09 09:32:16;;;;;;;7.57;3.20;;;;;;;25.77;100.00;101355.28;5019011;28;20042;-57
2022/06/09 09:34:45;;;;;;;7.33;2.97;;;;;;;25.65;100.00;101351.28;5032142;28;20041;-53
2022/06/09 09:37:37;;;;;;;8.50;2.87;;;;;;;25.21;100.00;101353.72;5027042;28;20094;-52
2022/06/09 09:40:20;;;;;;;5.80;2.80;;;;;;;26.13;100.00;101356.88;5022725;28;20042;-51
2022/06/09 09:42:47;;;;;;;12.27;2.77;;;;;;;26.11;100.00;101363.75;5014623;28;20062;-54
2022/06/09 09:45:30;;;;;;;7.47;2.33;;;;;;;25.77;100.00;101370.88;5026705;28;20035;-53
2022/06/09 09:47:59;;;;;;;12.50;4.20;;;;;;;25.82;100.00;101372.78;5018907;28;20034;-50
2022/06/09 09:50:30;;;;;;;29.97;14.17;;;;;;;26.90;100.00;101370.91;5030493;28;20065;-50
2022/06/09 09:53:04;;;;;;;8.83;3.33;;;;;;;26.43;100.00;101378.84;5023257;28;20040;-51
2022/06/09 09:55:37;;;;;;;8.13;2.60;;;;;;;27.24;100.00;101389.13;5026411;28;20037;-49
2022/06/09 09:58:18;;;;;;;11.37;3.77;;;;;;;27.40;100.00;101384.25;5029247;28;20066;-50
2022/06/09 10:00:47;;;;;;;16.00;4.67;;;;;;;27.19;100.00;101386.44;5026622;28;20038;-54
2022/06/09 10:09:06;;;;;;;11.95;3.17;;;;;;;28.44;100.00;101399.91;5025531;28;20081;-53
2022/06/09 10:11:53;;;;;;;6.93;1.90;;;;;;;28.13;100.00;101391.38;5025427;28;20030;-53
2022/06/09 10:14:54;;;;;;;6.88;2.70;;;;;;;27.85;100.00;101397.59;5025451;28;20037;-52
2022/06/09 10:17:25;;;;;;;8.63;3.75;;;;;;;27.33;100.00;101392.00;5019339;28;20053;-54
2022/06/09 10:20:00;;;;;;;7.65;2.35;;;;;;;27.01;100.00;101390.81;5029594;28;20045;-53
2022/06/09 10:22:27;;;;;;;21.13;2.80;;;;;;;26.74;100.00;101403.97;5016297;28;20035;-50
2022/06/09 10:24:59;;;;;;;8.35;2.35;;;;;;;27.75;100.00;101409.56;5026750;28;20094;-52
2022/06/09 10:27:32;;;;;;;8.33;2.23;;;;;;;27.41;100.00;101412.50;5016460;28;20041;-50
2022/06/09 10:30:12;;;;;;;23.23;9.77;;;;;;;26.81;100.00;101414.59;5020776;28;20044;-51
2022/06/09 10:32:47;;;;;;;6.00;2.37;;;;;;;27.08;100.00;101420.63;5034153;28;20097;-50
2022/06/09 10:35:26;;;;;;;11.13;4.80;;;;;;;26.22;100.00;101428.38;5014634;28;20090;-55
2022/06/09 10:37:58;;;;;;;12.73;2.00;;;;;;;26.05;100.00;101432.31;5020783;28;20065;-53
2022/06/09 10:40:36;;;;;;;10.03;3.30;;;;;;;25.78;100.00;101432.78;5021750;28;20041;-54
2022/06/09 10:43:25;;;;;;;6.00;1.60;;;;;;;26.05;100.00;101443.28;5026623;28;20068;-52
2022/06/09 10:46:01;;;;;;;11.47;5.30;;;;;;;26.03;100.00;101440.00;5029844;28;20065;-52
2022/06/09 10:57:27;;;;;;;9.87;1.97;;;;;;;27.18;100.00;101439.72;5026126;28;20037;-52
2022/06/09 11:00:03;;;;;;;6.60;2.13;;;;;;;27.91;100.00;101445.88;5010513;28;20034;-54
2022/06/09 11:02:30;;;;;;;;;;;;;;;29.28;100.00;101451.38;5008562;28;20038;-52
2022/06/09 11:04:57;;;;;;;9.07;2.63;;;;;;;30.58;91.25;101458.25;5011823;28;19917;-52
2022/06/09 11:07:34;;;;;;;8.57;1.88;;;;;;;30.68;92.72;101445.31;5022528;28;20045;-55
2022/06/09 11:10:18;;;;;;;4.47;1.50;;;;;;;31.51;70.18;101460.31;5019564;28;20065;-51
2022/06/09 11:13:08;;;;;;;7.18;1.98;;;;;;;32.06;76.68;101458.03;5029723;28;20038;-51
2022/06/09 11:15:52;;;;;;;7.93;1.80;;;;;;;31.41;82.07;101466.19;5017292;28;20081;-52
2022/06/09 11:18:23;;;;;;;6.78;1.77;;;;;;;31.90;83.04;101472.38;5017961;28;20042;-49
2022/06/09 11:21:18;;;;;;;7.60;2.47;;;;;;;32.75;63.48;101477.56;5029912;28;20033;-53
2022/06/09 11:24:15;;;;;;;6.68;1.50;;;;;;;31.95;71.21;101467.81;5021826;28;20034;-51
2022/06/09 11:26:52;;;;;;;4.53;1.23;;;;;;;31.68;62.64;101475.28;5016941;28;20041;-49
2022/06/09 11:30:10;;;;;;;6.75;2.00;;;;;;;33.33;63.63;101479.88;4997610;28;20086;-49
2022/06/09 11:33:03;;;;;;;6.78;2.92;;;;;;;34.26;66.40;101469.81;5036276;28;20045;-51
2022/06/09 11:36:06;;;;;;;11.98;1.85;;;;;;;34.73;58.88;101474.22;5015093;28;20038;-50
2022/06/09 11:38:49;;;;;;;4.22;1.23;;;;;;;33.36;62.90;101482.00;4988242;28;20039;-52
2022/06/09 11:41:42;;;;;;;4.57;1.90;;;;;;;33.58;64.81;101464.22;4978219;28;20034;-50
2022/06/09 11:44:28;;;;;;;7.78;1.73;;;;;;;31.98;60.11;101473.53;4986399;28;20037;-48
2022/06/09 11:46:57;;;;;;;11.52;1.90;;;;;;;30.75;66.84;101474.09;4975929;28;20099;-53
2022/06/09 11:49:38;;;;;;;6.90;1.50;;;;;;;32.76;74.47;101484.72;4979177;28;20039;-55
2022/06/09 11:52:13;;;;;;;5.38;1.38;;;;;;;34.16;53.75;101485.78;4983207;28;20039;-51
2022/06/09 11:54:54;;;;;;;7.50;1.35;;;;;;;32.75;54.50;101489.44;4989397;28;20050;-52